sensor_id;sensor_type;location;lat;lon;timestamp;P1;durP1;ratioP1;P2;durP2;ratioP2
30743;SDS011;17486;46.738;7.622;2024-02-21T00:02:24;3.85;;;3.20;;
30743;SDS011;17486;46.738;7.622;2024-02-21T00:04:49;5.03;;;3.08;;
30743;SDS011;17486;46.738;7.622;2024-02-21T00:07:15;4.72;;;3.22;;
30743;SDS011;17486;46.738;7.622;2024-02-21T00:09:40;7.00;;;3.40;;
30743;SDS011;17486;46.738;7.622;2024-02-21T00:12:06;2.97;;;2.60;;
30743;SDS011;17486;46.738;7.622;2024-02-21T00:14:31;6.68;;;3.05;;
30743;SDS011;17486;46.738;7.622;2024-02-21T00:16:57;4.97;;;3.30;;
30743;SDS011;17486;46.738;7.622;2024-02-21T00:19:22;4.30;;;3.33;;
30743;SDS011;17486;46.738;7.622;2024-02-21T00:21:47;4.25;;;3.22;;
30743;SDS011;17486;46.738;7.622;2024-02-21T00:24:13;5.13;;;3.03;;
30743;SDS011;17486;46.738;7.622;2024-02-21T00:26:38;4.10;;;2.90;;
30743;SDS011;17486;46.738;7.622;2024-02-21T00:29:04;3.95;;;2.63;;
30743;SDS011;17486;46.738;7.622;2024-02-21T00:31:30;4.20;;;2.70;;
30743;SDS011;17486;46.738;7.622;2024-02-21T00:33:55;3.10;;;2.40;;
30743;SDS011;17486;46.738;7.622;2024-02-21T00:36:21;3.90;;;2.65;;
30743;SDS011;17486;46.738;7.622;2024-02-21T00:38:46;3.97;;;2.58;;
30743;SDS011;17486;46.738;7.622;2024-02-21T00:41:12;3.20;;;2.50;;
30743;SDS011;17486;46.738;7.622;2024-02-21T00:43:37;2.55;;;2.20;;
30743;SDS011;17486;46.738;7.622;2024-02-21T00:46:02;4.57;;;2.35;;
30743;SDS011;17486;46.738;7.622;2024-02-21T00:48:30;2.20;;;1.77;;
30743;SDS011;17486;46.738;7.622;2024-02-21T00:50:55;2.60;;;1.38;;
30743;SDS011;17486;46.738;7.622;2024-02-21T00:53:21;3.85;;;1.50;;
30743;SDS011;17486;46.738;7.622;2024-02-21T00:55:46;2.42;;;1.40;;
30743;SDS011;17486;46.738;7.622;2024-02-21T00:58:11;1.25;;;1.15;;
30743;SDS011;17486;46.738;7.622;2024-02-21T01:00:37;1.08;;;0.90;;
30743;SDS011;17486;46.738;7.622;2024-02-21T01:03:02;1.63;;;1.08;;
30743;SDS011;17486;46.738;7.622;2024-02-21T01:05:28;1.10;;;0.95;;
30743;SDS011;17486;46.738;7.622;2024-02-21T01:07:54;1.10;;;1.00;;
30743;SDS011;17486;46.738;7.622;2024-02-21T01:10:19;0.70;;;0.70;;
30743;SDS011;17486;46.738;7.622;2024-02-21T01:12:45;1.60;;;1.10;;
30743;SDS011;17486;46.738;7.622;2024-02-21T01:15:10;2.63;;;1.27;;
30743;SDS011;17486;46.738;7.622;2024-02-21T01:17:36;1.58;;;1.13;;
30743;SDS011;17486;46.738;7.622;2024-02-21T01:20:02;1.15;;;0.90;;
30743;SDS011;17486;46.738;7.622;2024-02-21T01:22:30;1.80;;;1.10;;
30743;SDS011;17486;46.738;7.622;2024-02-21T01:24:56;1.63;;;1.10;;
30743;SDS011;17486;46.738;7.622;2024-02-21T01:27:21;1.52;;;1.00;;
30743;SDS011;17486;46.738;7.622;2024-02-21T01:29:46;0.80;;;0.80;;
30743;SDS011;17486;46.738;7.622;2024-02-21T01:32:14;1.00;;;0.90;;
30743;SDS011;17486;46.738;7.622;2024-02-21T01:34:40;0.90;;;0.90;;
30743;SDS011;17486;46.738;7.622;2024-02-21T01:37:05;1.63;;;1.10;;
30743;SDS011;17486;46.738;7.622;2024-02-21T01:39:32;1.02;;;0.90;;
30743;SDS011;17486;46.738;7.622;2024-02-21T01:41:58;1.00;;;1.00;;
30743;SDS011;17486;46.738;7.622;2024-02-21T01:44:23;0.75;;;0.75;;
30743;SDS011;17486;46.738;7.622;2024-02-21T01:46:49;1.98;;;1.33;;
30743;SDS011;17486;46.738;7.622;2024-02-21T01:49:16;2.33;;;1.35;;
30743;SDS011;17486;46.738;7.622;2024-02-21T01:51:41;3.15;;;1.02;;
30743;SDS011;17486;46.738;7.622;2024-02-21T01:54:07;1.48;;;1.20;;
30743;SDS011;17486;46.738;7.622;2024-02-21T01:56:33;2.22;;;0.90;;
30743;SDS011;17486;46.738;7.622;2024-02-21T01:58:59;0.93;;;0.88;;
30743;SDS011;17486;46.738;7.622;2024-02-21T02:01:24;1.17;;;1.00;;
30743;SDS011;17486;46.738;7.622;2024-02-21T02:03:50;1.05;;;0.85;;
30743;SDS011;17486;46.738;7.622;2024-02-21T02:06:16;1.70;;;0.80;;
30743;SDS011;17486;46.738;7.622;2024-02-21T02:08:42;1.35;;;0.90;;
30743;SDS011;17486;46.738;7.622;2024-02-21T02:11:07;1.45;;;1.00;;
30743;SDS011;17486;46.738;7.622;2024-02-21T02:13:33;1.85;;;0.90;;
30743;SDS011;17486;46.738;7.622;2024-02-21T02:15:58;1.10;;;1.00;;
30743;SDS011;17486;46.738;7.622;2024-02-21T02:18:23;1.48;;;1.10;;
30743;SDS011;17486;46.738;7.622;2024-02-21T02:20:49;1.35;;;1.23;;
30743;SDS011;17486;46.738;7.622;2024-02-21T02:25:49;2.47;;;1.30;;
30743;SDS011;17486;46.738;7.622;2024-02-21T02:28:17;1.85;;;1.30;;
30743;SDS011;17486;46.738;7.622;2024-02-21T02:30:43;1.88;;;0.90;;
30743;SDS011;17486;46.738;7.622;2024-02-21T02:33:08;1.35;;;1.20;;
30743;SDS011;17486;46.738;7.622;2024-02-21T02:35:34;2.13;;;1.58;;
30743;SDS011;17486;46.738;7.622;2024-02-21T02:38:01;1.55;;;1.40;;
30743;SDS011;17486;46.738;7.622;2024-02-21T02:40:30;1.50;;;1.20;;
30743;SDS011;17486;46.738;7.622;2024-02-21T02:42:56;0.90;;;0.80;;
30743;SDS011;17486;46.738;7.622;2024-02-21T02:45:22;1.30;;;1.17;;
30743;SDS011;17486;46.738;7.622;2024-02-21T02:47:49;1.10;;;0.90;;
30743;SDS011;17486;46.738;7.622;2024-02-21T02:50:14;1.30;;;1.00;;
30743;SDS011;17486;46.738;7.622;2024-02-21T02:52:40;0.90;;;0.77;;
30743;SDS011;17486;46.738;7.622;2024-02-21T02:55:05;1.63;;;1.05;;
30743;SDS011;17486;46.738;7.622;2024-02-21T02:57:32;1.55;;;1.20;;
30743;SDS011;17486;46.738;7.622;2024-02-21T02:59:58;2.38;;;1.40;;
30743;SDS011;17486;46.738;7.622;2024-02-21T03:02:23;2.10;;;1.27;;
30743;SDS011;17486;46.738;7.622;2024-02-21T03:04:49;2.85;;;1.20;;
30743;SDS011;17486;46.738;7.622;2024-02-21T03:07:14;1.58;;;1.48;;
30743;SDS011;17486;46.738;7.622;2024-02-21T03:09:40;2.05;;;1.45;;
30743;SDS011;17486;46.738;7.622;2024-02-21T03:12:07;1.40;;;1.30;;
30743;SDS011;17486;46.738;7.622;2024-02-21T03:14:33;1.52;;;1.27;;
30743;SDS011;17486;46.738;7.622;2024-02-21T03:16:59;1.45;;;1.30;;
30743;SDS011;17486;46.738;7.622;2024-02-21T03:19:24;1.85;;;1.40;;
30743;SDS011;17486;46.738;7.622;2024-02-21T03:21:50;2.17;;;1.38;;
30743;SDS011;17486;46.738;7.622;2024-02-21T03:24:16;3.35;;;1.17;;
30743;SDS011;17486;46.738;7.622;2024-02-21T03:26:42;1.60;;;1.10;;
30743;SDS011;17486;46.738;7.622;2024-02-21T03:29:08;2.13;;;1.30;;
30743;SDS011;17486;46.738;7.622;2024-02-21T03:31:34;1.45;;;1.10;;
30743;SDS011;17486;46.738;7.622;2024-02-21T03:34:00;2.03;;;1.17;;
30743;SDS011;17486;46.738;7.622;2024-02-21T03:36:25;1.88;;;1.38;;
30743;SDS011;17486;46.738;7.622;2024-02-21T03:38:51;1.20;;;1.05;;
30743;SDS011;17486;46.738;7.622;2024-02-21T03:41:16;2.15;;;1.20;;
30743;SDS011;17486;46.738;7.622;2024-02-21T03:43:41;2.58;;;1.30;;
30743;SDS011;17486;46.738;7.622;2024-02-21T03:46:07;2.15;;;1.10;;
30743;SDS011;17486;46.738;7.622;2024-02-21T03:48:32;2.90;;;1.30;;
30743;SDS011;17486;46.738;7.622;2024-02-21T03:50:58;1.50;;;1.10;;
30743;SDS011;17486;46.738;7.622;2024-02-21T03:53:23;1.40;;;1.13;;
30743;SDS011;17486;46.738;7.622;2024-02-21T03:55:49;1.38;;;1.05;;
30743;SDS011;17486;46.738;7.622;2024-02-21T03:58:14;1.52;;;1.17;;
30743;SDS011;17486;46.738;7.622;2024-02-21T04:00:40;1.40;;;1.30;;
30743;SDS011;17486;46.738;7.622;2024-02-21T04:03:06;1.73;;;1.20;;
30743;SDS011;17486;46.738;7.622;2024-02-21T04:05:31;1.58;;;1.15;;
30743;SDS011;17486;46.738;7.622;2024-02-21T04:07:57;1.25;;;1.10;;
30743;SDS011;17486;46.738;7.622;2024-02-21T04:10:22;1.25;;;1.15;;
30743;SDS011;17486;46.738;7.622;2024-02-21T04:12:48;2.45;;;1.20;;
30743;SDS011;17486;46.738;7.622;2024-02-21T04:15:15;1.30;;;1.20;;
30743;SDS011;17486;46.738;7.622;2024-02-21T04:17:44;1.35;;;1.10;;
30743;SDS011;17486;46.738;7.622;2024-02-21T04:20:13;1.33;;;1.23;;
30743;SDS011;17486;46.738;7.622;2024-02-21T04:22:40;2.08;;;1.40;;
30743;SDS011;17486;46.738;7.622;2024-02-21T04:25:06;1.58;;;1.48;;
30743;SDS011;17486;46.738;7.622;2024-02-21T04:27:31;2.22;;;1.70;;
30743;SDS011;17486;46.738;7.622;2024-02-21T04:29:57;2.17;;;1.70;;
30743;SDS011;17486;46.738;7.622;2024-02-21T04:32:22;4.30;;;1.77;;
30743;SDS011;17486;46.738;7.622;2024-02-21T04:34:48;1.92;;;1.60;;
30743;SDS011;17486;46.738;7.622;2024-02-21T04:37:13;2.67;;;1.45;;
30743;SDS011;17486;46.738;7.622;2024-02-21T04:39:38;2.45;;;1.70;;
30743;SDS011;17486;46.738;7.622;2024-02-21T04:42:04;1.63;;;1.40;;
30743;SDS011;17486;46.738;7.622;2024-02-21T04:44:29;1.58;;;1.48;;
30743;SDS011;17486;46.738;7.622;2024-02-21T04:46:55;3.15;;;1.50;;
30743;SDS011;17486;46.738;7.622;2024-02-21T04:49:20;2.30;;;1.83;;
30743;SDS011;17486;46.738;7.622;2024-02-21T04:51:45;3.10;;;1.70;;
30743;SDS011;17486;46.738;7.622;2024-02-21T04:54:11;1.67;;;1.58;;
30743;SDS011;17486;46.738;7.622;2024-02-21T04:56:36;2.17;;;1.80;;
30743;SDS011;17486;46.738;7.622;2024-02-21T04:59:01;1.75;;;1.55;;
30743;SDS011;17486;46.738;7.622;2024-02-21T05:01:27;2.25;;;1.60;;
30743;SDS011;17486;46.738;7.622;2024-02-21T05:03:53;2.25;;;1.73;;
30743;SDS011;17486;46.738;7.622;2024-02-21T05:06:18;2.03;;;1.65;;
30743;SDS011;17486;46.738;7.622;2024-02-21T05:08:44;2.42;;;2.17;;
30743;SDS011;17486;46.738;7.622;2024-02-21T05:11:09;2.38;;;1.98;;
30743;SDS011;17486;46.738;7.622;2024-02-21T05:13:35;2.38;;;1.40;;
30743;SDS011;17486;46.738;7.622;2024-02-21T05:16:00;2.08;;;1.73;;
30743;SDS011;17486;46.738;7.622;2024-02-21T05:18:27;3.83;;;2.03;;
30743;SDS011;17486;46.738;7.622;2024-02-21T05:20:53;2.42;;;1.90;;
30743;SDS011;17486;46.738;7.622;2024-02-21T05:23:18;2.83;;;1.70;;
30743;SDS011;17486;46.738;7.622;2024-02-21T05:25:43;2.45;;;1.90;;
30743;SDS011;17486;46.738;7.622;2024-02-21T05:28:09;2.50;;;2.10;;
30743;SDS011;17486;46.738;7.622;2024-02-21T05:30:34;2.55;;;2.08;;
30743;SDS011;17486;46.738;7.622;2024-02-21T05:33:03;2.35;;;1.90;;
30743;SDS011;17486;46.738;7.622;2024-02-21T05:35:29;2.28;;;1.98;;
30743;SDS011;17486;46.738;7.622;2024-02-21T05:37:55;2.20;;;2.00;;
30743;SDS011;17486;46.738;7.622;2024-02-21T05:40:20;2.13;;;1.92;;
30743;SDS011;17486;46.738;7.622;2024-02-21T05:42:45;2.22;;;2.03;;
30743;SDS011;17486;46.738;7.622;2024-02-21T05:45:11;3.10;;;2.33;;
30743;SDS011;17486;46.738;7.622;2024-02-21T05:47:36;3.55;;;2.20;;
30743;SDS011;17486;46.738;7.622;2024-02-21T05:50:01;3.28;;;2.40;;
30743;SDS011;17486;46.738;7.622;2024-02-21T05:52:27;2.50;;;2.20;;
30743;SDS011;17486;46.738;7.622;2024-02-21T05:54:52;2.53;;;2.25;;
30743;SDS011;17486;46.738;7.622;2024-02-21T05:57:18;3.38;;;2.00;;
30743;SDS011;17486;46.738;7.622;2024-02-21T05:59:43;2.58;;;2.10;;
30743;SDS011;17486;46.738;7.622;2024-02-21T06:02:09;3.03;;;2.30;;
30743;SDS011;17486;46.738;7.622;2024-02-21T06:04:34;2.45;;;1.92;;
30743;SDS011;17486;46.738;7.622;2024-02-21T06:07:00;2.38;;;2.17;;
30743;SDS011;17486;46.738;7.622;2024-02-21T06:09:26;4.65;;;2.55;;
30743;SDS011;17486;46.738;7.622;2024-02-21T06:11:52;2.78;;;2.30;;
30743;SDS011;17486;46.738;7.622;2024-02-21T06:14:18;3.05;;;2.40;;
30743;SDS011;17486;46.738;7.622;2024-02-21T06:16:44;2.45;;;2.15;;
30743;SDS011;17486;46.738;7.622;2024-02-21T06:19:10;2.55;;;2.30;;
30743;SDS011;17486;46.738;7.622;2024-02-21T06:21:35;3.40;;;2.50;;
30743;SDS011;17486;46.738;7.622;2024-02-21T06:24:01;3.10;;;2.80;;
30743;SDS011;17486;46.738;7.622;2024-02-21T06:26:27;3.60;;;2.80;;
30743;SDS011;17486;46.738;7.622;2024-02-21T06:28:52;3.65;;;3.35;;
30743;SDS011;17486;46.738;7.622;2024-02-21T06:31:17;4.78;;;3.38;;
30743;SDS011;17486;46.738;7.622;2024-02-21T06:33:43;5.18;;;3.22;;
30743;SDS011;17486;46.738;7.622;2024-02-21T06:36:08;3.60;;;3.30;;
30743;SDS011;17486;46.738;7.622;2024-02-21T06:38:34;3.63;;;3.08;;
30743;SDS011;17486;46.738;7.622;2024-02-21T06:40:59;3.45;;;3.15;;
30743;SDS011;17486;46.738;7.622;2024-02-21T06:43:25;3.88;;;2.92;;
30743;SDS011;17486;46.738;7.622;2024-02-21T06:45:51;3.63;;;2.80;;
30743;SDS011;17486;46.738;7.622;2024-02-21T06:48:17;5.10;;;2.22;;
30743;SDS011;17486;46.738;7.622;2024-02-21T06:50:43;4.03;;;2.85;;
30743;SDS011;17486;46.738;7.622;2024-02-21T06:53:09;3.03;;;2.38;;
30743;SDS011;17486;46.738;7.622;2024-02-21T06:55:34;6.20;;;3.47;;
30743;SDS011;17486;46.738;7.622;2024-02-21T06:58:00;5.32;;;3.15;;
30743;SDS011;17486;46.738;7.622;2024-02-21T07:00:27;4.72;;;2.80;;
30743;SDS011;17486;46.738;7.622;2024-02-21T07:02:55;4.55;;;2.80;;
30743;SDS011;17486;46.738;7.622;2024-02-21T07:05:21;3.67;;;2.50;;
30743;SDS011;17486;46.738;7.622;2024-02-21T07:07:47;8.82;;;4.72;;
30743;SDS011;17486;46.738;7.622;2024-02-21T07:10:12;4.57;;;3.85;;
30743;SDS011;17486;46.738;7.622;2024-02-21T07:12:38;4.72;;;3.25;;
30743;SDS011;17486;46.738;7.622;2024-02-21T07:15:09;7.10;;;3.50;;
30743;SDS011;17486;46.738;7.622;2024-02-21T07:17:34;3.65;;;2.95;;
30743;SDS011;17486;46.738;7.622;2024-02-21T07:20:00;3.60;;;3.00;;
30743;SDS011;17486;46.738;7.622;2024-02-21T07:22:26;2.80;;;2.35;;
30743;SDS011;17486;46.738;7.622;2024-02-21T07:24:51;3.13;;;2.63;;
30743;SDS011;17486;46.738;7.622;2024-02-21T07:27:17;4.97;;;3.17;;
30743;SDS011;17486;46.738;7.622;2024-02-21T07:29:42;5.43;;;2.47;;
30743;SDS011;17486;46.738;7.622;2024-02-21T07:32:12;4.22;;;2.85;;
30743;SDS011;17486;46.738;7.622;2024-02-21T07:34:37;3.78;;;2.97;;
30743;SDS011;17486;46.738;7.622;2024-02-21T07:37:03;4.32;;;2.90;;
30743;SDS011;17486;46.738;7.622;2024-02-21T07:39:28;3.65;;;2.72;;
30743;SDS011;17486;46.738;7.622;2024-02-21T07:41:53;4.07;;;2.60;;
30743;SDS011;17486;46.738;7.622;2024-02-21T07:44:19;3.70;;;2.95;;
30743;SDS011;17486;46.738;7.622;2024-02-21T07:46:44;4.35;;;2.90;;
30743;SDS011;17486;46.738;7.622;2024-02-21T07:49:09;3.35;;;2.70;;
30743;SDS011;17486;46.738;7.622;2024-02-21T07:51:35;3.42;;;2.65;;
30743;SDS011;17486;46.738;7.622;2024-02-21T07:54:01;5.57;;;2.97;;
30743;SDS011;17486;46.738;7.622;2024-02-21T07:56:27;5.50;;;3.22;;
30743;SDS011;17486;46.738;7.622;2024-02-21T07:58:53;5.75;;;3.05;;
30743;SDS011;17486;46.738;7.622;2024-02-21T08:01:19;6.35;;;3.22;;
30743;SDS011;17486;46.738;7.622;2024-02-21T08:03:47;4.35;;;2.90;;
30743;SDS011;17486;46.738;7.622;2024-02-21T08:06:13;3.75;;;3.00;;
30743;SDS011;17486;46.738;7.622;2024-02-21T08:08:39;3.35;;;2.63;;
30743;SDS011;17486;46.738;7.622;2024-02-21T08:11:04;3.45;;;2.80;;
30743;SDS011;17486;46.738;7.622;2024-02-21T08:13:30;3.65;;;2.53;;
30743;SDS011;17486;46.738;7.622;2024-02-21T08:15:56;4.70;;;2.45;;
30743;SDS011;17486;46.738;7.622;2024-02-21T08:18:22;4.03;;;2.55;;
30743;SDS011;17486;46.738;7.622;2024-02-21T08:20:47;3.65;;;2.47;;
30743;SDS011;17486;46.738;7.622;2024-02-21T08:23:15;4.15;;;2.38;;
30743;SDS011;17486;46.738;7.622;2024-02-21T08:25:41;3.15;;;1.90;;
30743;SDS011;17486;46.738;7.622;2024-02-21T08:28:06;2.67;;;2.17;;
30743;SDS011;17486;46.738;7.622;2024-02-21T08:30:33;3.83;;;2.58;;
30743;SDS011;17486;46.738;7.622;2024-02-21T08:32:59;5.20;;;2.88;;
30743;SDS011;17486;46.738;7.622;2024-02-21T08:35:24;4.10;;;1.73;;
30743;SDS011;17486;46.738;7.622;2024-02-21T08:37:49;2.35;;;2.00;;
30743;SDS011;17486;46.738;7.622;2024-02-21T08:40:15;5.75;;;2.38;;
30743;SDS011;17486;46.738;7.622;2024-02-21T08:42:44;2.83;;;2.20;;
30743;SDS011;17486;46.738;7.622;2024-02-21T08:45:10;4.55;;;2.30;;
30743;SDS011;17486;46.738;7.622;2024-02-21T08:47:35;3.67;;;2.30;;
30743;SDS011;17486;46.738;7.622;2024-02-21T08:50:04;3.35;;;2.40;;
30743;SDS011;17486;46.738;7.622;2024-02-21T08:52:30;2.47;;;1.80;;
30743;SDS011;17486;46.738;7.622;2024-02-21T08:54:56;2.67;;;2.00;;
30743;SDS011;17486;46.738;7.622;2024-02-21T08:57:21;2.10;;;1.80;;
30743;SDS011;17486;46.738;7.622;2024-02-21T08:59:47;2.03;;;1.75;;
30743;SDS011;17486;46.738;7.622;2024-02-21T09:02:12;2.90;;;1.70;;
30743;SDS011;17486;46.738;7.622;2024-02-21T09:04:38;3.08;;;1.65;;
30743;SDS011;17486;46.738;7.622;2024-02-21T09:07:03;2.03;;;1.63;;
30743;SDS011;17486;46.738;7.622;2024-02-21T09:09:29;2.03;;;1.60;;
30743;SDS011;17486;46.738;7.622;2024-02-21T09:11:54;2.55;;;1.65;;
30743;SDS011;17486;46.738;7.622;2024-02-21T09:14:19;1.58;;;1.27;;
30743;SDS011;17486;46.738;7.622;2024-02-21T09:16:45;3.58;;;1.50;;
30743;SDS011;17486;46.738;7.622;2024-02-21T09:19:10;3.65;;;1.20;;
30743;SDS011;17486;46.738;7.622;2024-02-21T09:21:39;49.92;;;7.28;;
30743;SDS011;17486;46.738;7.622;2024-02-21T09:24:07;24.90;;;4.10;;
30743;SDS011;17486;46.738;7.622;2024-02-21T09:26:33;5.25;;;1.55;;
30743;SDS011;17486;46.738;7.622;2024-02-21T09:28:58;2.92;;;1.45;;
30743;SDS011;17486;46.738;7.622;2024-02-21T09:31:23;1.83;;;1.40;;
30743;SDS011;17486;46.738;7.622;2024-02-21T09:33:49;1.25;;;1.10;;
30743;SDS011;17486;46.738;7.622;2024-02-21T09:36:14;3.08;;;1.45;;
30743;SDS011;17486;46.738;7.622;2024-02-21T09:38:40;3.05;;;1.30;;
30743;SDS011;17486;46.738;7.622;2024-02-21T09:41:18;3.03;;;1.40;;
30743;SDS011;17486;46.738;7.622;2024-02-21T09:43:52;1.20;;;1.10;;
30743;SDS011;17486;46.738;7.622;2024-02-21T09:46:24;2.00;;;1.60;;
30743;SDS011;17486;46.738;7.622;2024-02-21T09:49:10;1.75;;;1.60;;
30743;SDS011;17486;46.738;7.622;2024-02-21T09:51:49;2.90;;;1.88;;
30743;SDS011;17486;46.738;7.622;2024-02-21T09:54:18;2.65;;;1.50;;
30743;SDS011;17486;46.738;7.622;2024-02-21T09:56:45;1.80;;;1.58;;
30743;SDS011;17486;46.738;7.622;2024-02-21T09:59:12;3.72;;;1.38;;
30743;SDS011;17486;46.738;7.622;2024-02-21T10:01:39;3.42;;;1.90;;
30743;SDS011;17486;46.738;7.622;2024-02-21T10:04:04;7.93;;;2.00;;
30743;SDS011;17486;46.738;7.622;2024-02-21T10:06:30;3.13;;;1.40;;
30743;SDS011;17486;46.738;7.622;2024-02-21T10:08:55;2.13;;;1.42;;
30743;SDS011;17486;46.738;7.622;2024-02-21T10:11:24;2.72;;;1.83;;
30743;SDS011;17486;46.738;7.622;2024-02-21T10:13:50;2.95;;;1.58;;
30743;SDS011;17486;46.738;7.622;2024-02-21T10:16:16;1.88;;;1.55;;
30743;SDS011;17486;46.738;7.622;2024-02-21T10:18:41;1.52;;;1.42;;
30743;SDS011;17486;46.738;7.622;2024-02-21T10:21:07;1.98;;;1.75;;
30743;SDS011;17486;46.738;7.622;2024-02-21T10:23:49;2.72;;;1.50;;
30743;SDS011;17486;46.738;7.622;2024-02-21T10:28:41;2.00;;;1.50;;
30743;SDS011;17486;46.738;7.622;2024-02-21T10:31:08;2.28;;;1.48;;
30743;SDS011;17486;46.738;7.622;2024-02-21T10:33:34;2.13;;;1.80;;
30743;SDS011;17486;46.738;7.622;2024-02-21T10:36:10;1.85;;;1.58;;
30743;SDS011;17486;46.738;7.622;2024-02-21T10:38:38;1.92;;;1.50;;
30743;SDS011;17486;46.738;7.622;2024-02-21T10:41:04;1.70;;;1.58;;
30743;SDS011;17486;46.738;7.622;2024-02-21T10:43:31;2.03;;;1.58;;
30743;SDS011;17486;46.738;7.622;2024-02-21T10:46:03;2.53;;;1.77;;
30743;SDS011;17486;46.738;7.622;2024-02-21T10:48:32;1.98;;;1.70;;
30743;SDS011;17486;46.738;7.622;2024-02-21T10:51:19;1.58;;;1.33;;
30743;SDS011;17486;46.738;7.622;2024-02-21T10:56:30;2.10;;;1.90;;
30743;SDS011;17486;46.738;7.622;2024-02-21T10:58:59;1.90;;;1.75;;
30743;SDS011;17486;46.738;7.622;2024-02-21T11:01:27;3.17;;;1.75;;
30743;SDS011;17486;46.738;7.622;2024-02-21T11:03:56;2.10;;;1.50;;
30743;SDS011;17486;46.738;7.622;2024-02-21T11:06:25;1.85;;;1.52;;
30743;SDS011;17486;46.738;7.622;2024-02-21T11:09:07;2.35;;;1.50;;
30743;SDS011;17486;46.738;7.622;2024-02-21T11:11:40;7.15;;;1.50;;
30743;SDS011;17486;46.738;7.622;2024-02-21T11:14:08;1.33;;;1.17;;
30743;SDS011;17486;46.738;7.622;2024-02-21T11:16:37;2.60;;;1.63;;
30743;SDS011;17486;46.738;7.622;2024-02-21T11:19:26;1.33;;;1.23;;
30743;SDS011;17486;46.738;7.622;2024-02-21T11:21:51;1.92;;;1.25;;
30743;SDS011;17486;46.738;7.622;2024-02-21T11:24:28;1.17;;;0.95;;
30743;SDS011;17486;46.738;7.622;2024-02-21T11:27:16;1.80;;;1.13;;
30743;SDS011;17486;46.738;7.622;2024-02-21T11:29:45;2.45;;;1.20;;
30743;SDS011;17486;46.738;7.622;2024-02-21T11:32:18;1.67;;;1.45;;
30743;SDS011;17486;46.738;7.622;2024-02-21T11:35:03;2.15;;;1.83;;
30743;SDS011;17486;46.738;7.622;2024-02-21T11:37:30;3.13;;;1.77;;
30743;SDS011;17486;46.738;7.622;2024-02-21T11:39:58;1.98;;;1.65;;
30743;SDS011;17486;46.738;7.622;2024-02-21T11:42:27;1.75;;;1.50;;
30743;SDS011;17486;46.738;7.622;2024-02-21T11:44:53;2.47;;;1.60;;
30743;SDS011;17486;46.738;7.622;2024-02-21T11:47:22;1.55;;;1.45;;
30743;SDS011;17486;46.738;7.622;2024-02-21T11:49:48;2.35;;;1.50;;
30743;SDS011;17486;46.738;7.622;2024-02-21T11:52:15;2.83;;;1.30;;
30743;SDS011;17486;46.738;7.622;2024-02-21T11:54:41;1.95;;;1.67;;
30743;SDS011;17486;46.738;7.622;2024-02-21T11:57:07;4.63;;;1.70;;
30743;SDS011;17486;46.738;7.622;2024-02-21T11:59:33;2.38;;;2.08;;
30743;SDS011;17486;46.738;7.622;2024-02-21T12:01:59;2.25;;;1.70;;
30743;SDS011;17486;46.738;7.622;2024-02-21T12:04:26;2.35;;;1.75;;
30743;SDS011;17486;46.738;7.622;2024-02-21T12:06:52;2.53;;;1.77;;
30743;SDS011;17486;46.738;7.622;2024-02-21T12:09:19;1.98;;;1.58;;
30743;SDS011;17486;46.738;7.622;2024-02-21T12:11:45;1.55;;;1.42;;
30743;SDS011;17486;46.738;7.622;2024-02-21T12:14:15;1.85;;;1.50;;
30743;SDS011;17486;46.738;7.622;2024-02-21T12:16:41;3.08;;;2.00;;
30743;SDS011;17486;46.738;7.622;2024-02-21T12:19:07;3.33;;;1.52;;
30743;SDS011;17486;46.738;7.622;2024-02-21T12:21:34;2.20;;;1.58;;
30743;SDS011;17486;46.738;7.622;2024-02-21T12:24:11;1.45;;;1.35;;
30743;SDS011;17486;46.738;7.622;2024-02-21T12:26:40;2.70;;;1.70;;
30743;SDS011;17486;46.738;7.622;2024-02-21T12:29:06;2.70;;;1.35;;
30743;SDS011;17486;46.738;7.622;2024-02-21T12:31:34;3.58;;;1.77;;
30743;SDS011;17486;46.738;7.622;2024-02-21T12:34:01;2.65;;;1.25;;
30743;SDS011;17486;46.738;7.622;2024-02-21T12:36:26;2.22;;;1.38;;
30743;SDS011;17486;46.738;7.622;2024-02-21T12:38:52;1.88;;;1.58;;
30743;SDS011;17486;46.738;7.622;2024-02-21T12:41:17;3.22;;;1.60;;
30743;SDS011;17486;46.738;7.622;2024-02-21T12:43:42;3.13;;;1.50;;
30743;SDS011;17486;46.738;7.622;2024-02-21T12:46:08;3.63;;;2.00;;
30743;SDS011;17486;46.738;7.622;2024-02-21T12:48:33;2.70;;;1.50;;
30743;SDS011;17486;46.738;7.622;2024-02-21T12:50:59;1.40;;;1.30;;
30743;SDS011;17486;46.738;7.622;2024-02-21T12:53:24;2.45;;;1.63;;
30743;SDS011;17486;46.738;7.622;2024-02-21T12:55:50;3.13;;;1.40;;
30743;SDS011;17486;46.738;7.622;2024-02-21T12:58:15;2.25;;;1.58;;
30743;SDS011;17486;46.738;7.622;2024-02-21T13:00:41;2.35;;;1.50;;
30743;SDS011;17486;46.738;7.622;2024-02-21T13:03:07;2.05;;;1.58;;
30743;SDS011;17486;46.738;7.622;2024-02-21T13:05:34;1.20;;;1.00;;
30743;SDS011;17486;46.738;7.622;2024-02-21T13:08:01;1.48;;;1.10;;
30743;SDS011;17486;46.738;7.622;2024-02-21T13:10:26;1.75;;;1.17;;
30743;SDS011;17486;46.738;7.622;2024-02-21T13:12:51;2.10;;;1.30;;
30743;SDS011;17486;46.738;7.622;2024-02-21T13:15:17;1.25;;;1.00;;
30743;SDS011;17486;46.738;7.622;2024-02-21T13:17:45;1.20;;;1.10;;
30743;SDS011;17486;46.738;7.622;2024-02-21T13:20:11;1.33;;;1.20;;
30743;SDS011;17486;46.738;7.622;2024-02-21T13:22:37;1.70;;;1.60;;
30743;SDS011;17486;46.738;7.622;2024-02-21T13:25:03;1.25;;;1.15;;
30743;SDS011;17486;46.738;7.622;2024-02-21T13:27:30;3.08;;;1.50;;
30743;SDS011;17486;46.738;7.622;2024-02-21T13:29:55;1.70;;;1.58;;
30743;SDS011;17486;46.738;7.622;2024-02-21T13:32:20;2.47;;;1.50;;
30743;SDS011;17486;46.738;7.622;2024-02-21T13:34:46;2.00;;;1.63;;
30743;SDS011;17486;46.738;7.622;2024-02-21T13:37:11;2.38;;;1.65;;
30743;SDS011;17486;46.738;7.622;2024-02-21T13:39:38;3.30;;;1.70;;
30743;SDS011;17486;46.738;7.622;2024-02-21T13:42:04;2.30;;;1.65;;
30743;SDS011;17486;46.738;7.622;2024-02-21T13:44:31;3.40;;;1.80;;
30743;SDS011;17486;46.738;7.622;2024-02-21T13:46:57;2.42;;;2.22;;
30743;SDS011;17486;46.738;7.622;2024-02-21T13:49:22;4.68;;;2.05;;
30743;SDS011;17486;46.738;7.622;2024-02-21T13:51:48;2.38;;;2.17;;
30743;SDS011;17486;46.738;7.622;2024-02-21T13:54:13;2.83;;;2.15;;
30743;SDS011;17486;46.738;7.622;2024-02-21T13:56:42;4.60;;;1.67;;
30743;SDS011;17486;46.738;7.622;2024-02-21T13:59:08;1.65;;;1.55;;
30743;SDS011;17486;46.738;7.622;2024-02-21T14:01:33;2.03;;;1.73;;
30743;SDS011;17486;46.738;7.622;2024-02-21T14:03:59;1.70;;;1.60;;
30743;SDS011;17486;46.738;7.622;2024-02-21T14:06:25;3.22;;;1.90;;
30743;SDS011;17486;46.738;7.622;2024-02-21T14:08:50;3.28;;;1.98;;
30743;SDS011;17486;46.738;7.622;2024-02-21T14:11:16;3.35;;;1.60;;
30743;SDS011;17486;46.738;7.622;2024-02-21T14:13:41;2.25;;;1.95;;
30743;SDS011;17486;46.738;7.622;2024-02-21T14:16:09;3.28;;;1.80;;
30743;SDS011;17486;46.738;7.622;2024-02-21T14:18:39;3.17;;;2.00;;
30743;SDS011;17486;46.738;7.622;2024-02-21T14:21:07;2.85;;;2.05;;
30743;SDS011;17486;46.738;7.622;2024-02-21T14:23:32;4.35;;;2.35;;
30743;SDS011;17486;46.738;7.622;2024-02-21T14:25:58;3.17;;;2.60;;
30743;SDS011;17486;46.738;7.622;2024-02-21T14:28:24;2.58;;;2.20;;
30743;SDS011;17486;46.738;7.622;2024-02-21T14:30:49;4.90;;;2.38;;
30743;SDS011;17486;46.738;7.622;2024-02-21T14:33:18;2.28;;;2.08;;
30743;SDS011;17486;46.738;7.622;2024-02-21T14:35:44;4.00;;;2.30;;
30743;SDS011;17486;46.738;7.622;2024-02-21T14:38:09;3.55;;;2.40;;
30743;SDS011;17486;46.738;7.622;2024-02-21T14:40:35;2.90;;;2.28;;
30743;SDS011;17486;46.738;7.622;2024-02-21T14:43:00;3.10;;;2.50;;
30743;SDS011;17486;46.738;7.622;2024-02-21T14:45:25;4.10;;;2.42;;
30743;SDS011;17486;46.738;7.622;2024-02-21T14:47:51;2.50;;;2.28;;
30743;SDS011;17486;46.738;7.622;2024-02-21T14:50:16;3.20;;;2.00;;
30743;SDS011;17486;46.738;7.622;2024-02-21T14:52:42;3.40;;;2.13;;